Time;durP1;ratioP1;P1;durP2;ratioP2;P2;SDS_P1;SDS_P2;PMS_P1;PMS_P2;Temp;Humidity;BMP_temperature;BMP_pressure;BME280_temperature;BME280_humidity;BME280_pressure;Samples;Min_cycle;Max_cycle;Signal;HPM_P1;HPM_P2
2021/05/31 00:02:09;;;;;;;;;;;;;;;9.45;52.93;96695.94;5094367;28;20395;-63
2021/05/31 00:04:36;;;;;;;;;;;;;;;9.39;53.04;96696.81;5094326;28;20031;-63
2021/05/31 00:07:02;;;;;;;;;;;;;;;9.31;53.54;96692.66;5094547;28;19920;-64
2021/05/31 00:09:28;;;;;;;;;;;;;;;9.25;53.54;96684.81;5094680;28;19931;-64
2021/05/31 00:11:53;;;;;;;;;;;;;;;9.08;54.47;96692.41;5094652;28;20003;-63
2021/05/31 00:14:18;;;;;;;;;;;;;;;9.10;54.46;96695.66;5094751;28;19931;-64
2021/05/31 00:16:47;;;;;;;;;;;;;;;9.09;54.65;96694.03;5094885;28;19926;-63
2021/05/31 00:19:14;;;;;;;;;;;;;;;9.07;55.39;96691.63;5094546;28;20018;-64
2021/05/31 00:21:40;;;;;;;;;;;;;;;9.03;55.48;96690.44;5076907;28;20466;-63
2021/05/31 00:24:05;;;;;;;;;;;;;;;8.90;55.79;96686.09;5094714;28;19920;-63
2021/05/31 00:26:31;;;;;;;;;;;;;;;8.96;55.56;96687.06;5076175;28;20015;-64
2021/05/31 00:28:56;;;;;;;;;;;;;;;8.87;56.22;96685.72;5094892;28;20095;-64
2021/05/31 00:31:22;;;;;;;;;;;;;;;8.84;56.71;96686.16;5094842;28;20368;-64
2021/05/31 00:33:47;;;;;;;;;;;;;;;8.75;57.05;96680.34;5093999;28;20000;-64
2021/05/31 00:36:13;;;;;;;;;;;;;;;8.66;58.40;96674.56;5094330;28;19951;-64
2021/05/31 00:38:42;;;;;;;;;;;;;;;8.60;57.60;96674.59;5075985;28;20004;-64
2021/05/31 00:41:11;;;;;;;;;;;;;;;8.64;58.07;96676.59;5094734;28;19920;-63
2021/05/31 00:43:39;;;;;;;;;;;;;;;8.58;58.56;96666.94;5094243;28;19925;-64
2021/05/31 00:46:06;;;;;;;;;;;;;;;8.57;58.74;96662.72;5094420;28;19924;-63
2021/05/31 00:48:34;;;;;;;;;;;;;;;8.53;59.13;96660.72;5094142;28;19926;-63
2021/05/31 00:51:00;;;;;;;;;;;;;;;8.54;58.90;96662.34;5093985;28;19919;-63
2021/05/31 00:53:26;;;;;;;;;;;;;;;8.48;59.60;96665.81;5094016;28;19963;-63
2021/05/31 00:55:52;;;;;;;;;;;;;;;8.41;59.66;96660.59;5094407;28;19927;-63
2021/05/31 00:58:18;;;;;;;;;;;;;;;8.39;60.31;96663.44;5094158;28;19920;-63
2021/05/31 01:00:45;;;;;;;;;;;;;;;8.38;60.25;96661.81;5094448;28;19920;-63
2021/05/31 01:03:11;;;;;;;;;;;;;;;8.36;60.44;96668.28;5093479;28;20007;-64
2021/05/31 01:05:37;;;;;;;;;;;;;;;8.43;60.72;96668.25;5075548;28;20039;-63
2021/05/31 01:08:07;;;;;;;;;;;;;;;8.38;60.24;96655.78;5076019;28;20331;-64
2021/05/31 01:10:38;;;;;;;;;;;;;;;8.34;60.94;96658.00;5093621;28;19920;-65
2021/05/31 01:13:06;;;;;;;;;;;;;;;8.31;60.89;96654.97;5092174;28;19966;-64
2021/05/31 01:15:35;;;;;;;;;;;;;;;8.23;60.98;96663.06;5093530;28;20390;-63
2021/05/31 01:18:03;;;;;;;;;;;;;;;8.14;61.83;96663.34;5093331;28;20030;-63
2021/05/31 01:20:34;;;;;;;;;;;;;;;8.18;61.52;96662.91;5093629;28;19920;-63
2021/05/31 01:23:00;;;;;;;;;;;;;;;8.19;61.72;96672.38;5093606;28;19930;-63
2021/05/31 01:25:27;;;;;;;;;;;;;;;8.12;61.87;96673.19;5093506;28;19920;-63
2021/05/31 01:28:02;;;;;;;;;;;;;;;8.04;62.34;96670.03;5093424;28;20014;-63
2021/05/31 01:30:30;;;;;;;;;;;;;;;8.05;62.77;96667.19;5093314;28;20294;-63
2021/05/31 01:32:56;;;;;;;;;;;;;;;8.00;63.05;96667.00;5093038;28;19920;-64
2021/05/31 01:35:23;;;;;;;;;;;;;;;8.02;62.70;96664.19;5093174;28;19920;-64
2021/05/31 01:37:49;;;;;;;;;;;;;;;8.04;63.20;96662.97;5093675;28;19924;-64
2021/05/31 01:40:15;;;;;;;;;;;;;;;7.97;63.34;96664.81;5093635;28;19926;-64
2021/05/31 01:42:43;;;;;;;;;;;;;;;7.88;64.31;96664.25;5092880;28;20010;-64
2021/05/31 01:45:09;;;;;;;;;;;;;;;7.92;63.71;96661.22;5092841;28;19920;-65
2021/05/31 01:47:36;;;;;;;;;;;;;;;7.80;64.72;96659.25;5093271;28;19920;-64
2021/05/31 01:50:02;;;;;;;;;;;;;;;7.69;64.72;96659.84;5092902;28;20268;-63
2021/05/31 01:52:28;;;;;;;;;;;;;;;7.83;64.62;96653.59;5092823;28;19926;-64
2021/05/31 01:54:55;;;;;;;;;;;;;;;7.77;64.73;96653.59;5092814;28;20007;-64
2021/05/31 01:57:21;;;;;;;;;;;;;;;7.65;64.90;96644.78;5092747;28;20007;-64
2021/05/31 01:59:47;;;;;;;;;;;;;;;7.61;65.33;96645.19;5092686;28;20299;-63
2021/05/31 02:02:12;;;;;;;;;;;;;;;7.50;65.78;96647.66;5092632;28;19919;-64
2021/05/31 02:04:40;;;;;;;;;;;;;;;7.55;66.02;96650.44;5092386;28;19935;-63
2021/05/31 02:07:06;;;;;;;;;;;;;;;7.50;65.80;96642.41;5092782;28;19935;-65
2021/05/31 02:09:31;;;;;;;;;;;;;;;7.52;65.82;96648.22;5092461;28;19920;-64
2021/05/31 02:11:59;;;;;;;;;;;;;;;7.50;66.08;96640.59;5092084;28;20341;-64
2021/05/31 02:14:28;;;;;;;;;;;;;;;7.46;65.86;96635.97;5091830;28;20355;-63
2021/05/31 02:16:57;;;;;;;;;;;;;;;7.45;66.06;96631.75;5092021;28;20399;-64
2021/05/31 02:19:26;;;;;;;;;;;;;;;7.41;66.49;96633.97;5091722;28;19920;-64
2021/05/31 02:21:56;;;;;;;;;;;;;;;7.37;66.93;96632.75;5093137;28;19936;-64
2021/05/31 02:24:22;;;;;;;;;;;;;;;7.31;67.18;96637.00;5092118;28;19959;-64
2021/05/31 02:26:48;;;;;;;;;;;;;;;7.25;67.56;96632.59;5072856;28;19954;-64
2021/05/31 02:29:14;;;;;;;;;;;;;;;7.30;66.70;96624.13;5091575;28;19920;-63
2021/05/31 02:31:39;;;;;;;;;;;;;;;7.41;66.87;96630.53;5092362;28;19919;-63
2021/05/31 02:34:06;;;;;;;;;;;;;;;7.29;67.42;96625.94;5091717;28;19962;-63
2021/05/31 02:36:32;;;;;;;;;;;;;;;7.19;67.95;96629.97;5091959;28;19965;-64
2021/05/31 02:38:59;;;;;;;;;;;;;;;7.34;67.50;96633.19;5092031;28;19920;-64
2021/05/31 02:41:24;;;;;;;;;;;;;;;7.31;67.70;96628.34;5092360;28;20382;-64
2021/05/31 02:43:49;;;;;;;;;;;;;;;7.35;66.99;96634.78;5092028;28;19920;-63
2021/05/31 02:46:15;;;;;;;;;;;;;;;7.30;67.43;96627.53;5091901;28;19920;-64
2021/05/31 02:48:40;;;;;;;;;;;;;;;7.29;67.44;96625.94;5091665;28;19982;-64
2021/05/31 02:51:06;;;;;;;;;;;;;;;7.34;67.54;96633.19;5091950;28;20240;-64
2021/05/31 02:53:33;;;;;;;;;;;;;;;7.40;66.63;96624.50;5091830;28;19919;-64
2021/05/31 02:56:01;;;;;;;;;;;;;;;7.36;66.91;96633.78;5074068;28;19919;-64
2021/05/31 02:58:26;;;;;;;;;;;;;;;7.44;66.80;96630.94;5091952;28;19958;-64
2021/05/31 03:00:52;;;;;;;;;;;;;;;7.39;67.03;96638.59;5074638;28;19920;-64
2021/05/31 03:03:19;;;;;;;;;;;;;;;7.36;67.07;96631.16;5092058;28;20015;-64
2021/05/31 03:05:47;;;;;;;;;;;;;;;7.30;67.55;96631.97;5073802;28;19972;-64
2021/05/31 03:08:12;;;;;;;;;;;;;;;7.22;68.03;96630.38;5073376;28;19992;-64
2021/05/31 03:10:38;;;;;;;;;;;;;;;7.25;67.73;96629.97;5091737;28;20019;-64
2021/05/31 03:13:05;;;;;;;;;;;;;;;7.26;68.41;96622.91;5091822;28;19920;-64
2021/05/31 03:15:30;;;;;;;;;;;;;;;7.42;67.17;96629.53;5091811;28;19920;-65
2021/05/31 03:17:56;;;;;;;;;;;;;;;7.32;68.01;96629.97;5073588;28;20401;-64
2021/05/31 03:20:23;;;;;;;;;;;;;;;7.21;67.69;96626.16;5091891;28;19920;-64
2021/05/31 03:22:48;;;;;;;;;;;;;;;7.15;69.70;96629.56;5091605;28;19924;-64
2021/05/31 03:25:14;;;;;;;;;;;;;;;7.11;69.51;96633.63;5092056;28;20348;-64
2021/05/31 03:27:40;;;;;;;;;;;;;;;7.13;69.01;96626.38;5091612;28;19924;-63
2021/05/31 03:30:09;;;;;;;;;;;;;;;7.02;69.21;96617.31;5091897;28;20302;-64
2021/05/31 03:32:34;;;;;;;;;;;;;;;7.00;69.35;96632.44;5091650;28;19927;-64
2021/05/31 03:34:59;;;;;;;;;;;;;;;6.90;69.84;96637.25;5091591;28;19920;-63
2021/05/31 03:37:28;;;;;;;;;;;;;;;6.81;69.48;96638.47;5095595;28;19927;-64
2021/05/31 03:39:53;;;;;;;;;;;;;;;6.78;69.63;96633.63;5077339;28;19920;-64
2021/05/31 03:42:21;;;;;;;;;;;;;;;6.73;70.16;96643.91;5077426;28;20436;-63
2021/05/31 03:44:46;;;;;;;;;;;;;;;6.78;70.11;96644.91;5076715;28;19924;-64
2021/05/31 03:47:13;;;;;;;;;;;;;;;6.89;70.57;96646.13;5095362;28;19920;-64
2021/05/31 03:49:38;;;;;;;;;;;;;;;6.85;70.85;96650.13;5095430;28;19926;-64
2021/05/31 03:52:04;;;;;;;;;;;;;;;6.82;70.27;96647.91;5077009;28;19920;-64
2021/05/31 03:54:29;;;;;;;;;;;;;;;7.00;69.74;96642.91;5095338;28;19924;-69
2021/05/31 03:56:55;;;;;;;;;;;;;;;7.01;69.91;96649.72;5095110;28;19962;-64
2021/05/31 03:59:21;;;;;;;;;;;;;;;6.99;69.98;96654.34;5094853;28;19920;-64
2021/05/31 04:01:47;;;;;;;;;;;;;;;7.02;70.08;96643.47;5095996;28;19920;-64
2021/05/31 04:04:14;;;;;;;;;;;;;;;7.06;69.76;96643.91;5096348;28;19920;-64
2021/05/31 04:11:55;;;;;;;;;;;;;;;7.10;69.82;96639.84;5096487;28;19957;-64
2021/05/31 04:14:21;;;;;;;;;;;;;;;7.05;69.75;96630.00;5113653;22;19931;-67
2021/05/31 04:16:47;;;;;;;;;;;;;;;7.07;69.66;96635.84;5095292;28;19974;-67
2021/05/31 04:19:17;;;;;;;;;;;;;;;7.20;69.32;96636.81;5095593;28;19951;-66
2021/05/31 04:21:46;;;;;;;;;;;;;;;7.18;70.02;96628.38;5095412;28;19920;-67
2021/05/31 04:24:12;;;;;;;;;;;;;;;7.30;69.38;96632.78;5095487;28;19924;-66
2021/05/31 04:26:38;;;;;;;;;;;;;;;7.33;69.93;96639.44;5095530;28;20306;-65
2021/05/31 04:29:04;;;;;;;;;;;;;;;7.37;69.28;96632.75;5095466;28;19927;-66
2021/05/31 04:31:29;;;;;;;;;;;;;;;7.48;69.08;96631.31;5095576;28;19920;-66
2021/05/31 04:33:55;;;;;;;;;;;;;;;7.46;68.94;96626.31;5076942;28;19920;-67
2021/05/31 04:36:21;;;;;;;;;;;;;;;7.63;68.78;96627.44;5095383;28;19920;-67
2021/05/31 04:38:47;;;;;;;;;;;;;;;7.67;68.76;96635.72;5077128;28;19988;-67
2021/05/31 04:41:14;;;;;;;;;;;;;;;7.81;67.72;96626.00;5095574;28;19960;-67
2021/05/31 04:43:40;;;;;;;;;;;;;;;7.91;67.64;96621.13;5094965;28;19919;-67
2021/05/31 04:46:05;;;;;;;;;;;;;;;7.94;67.37;96627.75;5076758;28;19920;-67
2021/05/31 04:48:31;;;;;;;;;;;;;;;8.03;67.30;96626.50;5095330;28;20406;-67
2021/05/31 04:50:56;;;;;;;;;;;;;;;8.34;66.20;96633.56;5095152;28;20310;-67
2021/05/31 04:53:23;;;;;;;;;;;;;;;8.34;65.86;96628.34;5094805;28;19924;-67
2021/05/31 04:55:49;;;;;;;;;;;;;;;8.46;65.02;96631.94;5095154;28;19924;-67
2021/05/31 04:58:14;;;;;;;;;;;;;;;8.62;65.00;96634.06;5094885;28;19943;-67
2021/05/31 05:00:40;;;;;;;;;;;;;;;8.87;64.72;96634.03;5078740;28;19934;-67
2021/05/31 05:03:05;;;;;;;;;;;;;;;9.86;61.68;96632.28;5094778;28;19973;-68
2021/05/31 05:05:33;;;;;;;;;;;;;;;10.71;59.17;96634.81;5077714;28;19920;-68
2021/05/31 05:08:01;;;;;;;;;;;;;;;11.51;55.30;96634.25;5095766;28;19919;-68
2021/05/31 05:10:28;;;;;;;;;;;;;;;11.44;55.15;96635.41;5077681;28;19949;-67
2021/05/31 05:12:53;;;;;;;;;;;;;;;11.94;54.73;96632.25;5094634;28;19927;-65
2021/05/31 05:15:21;;;;;;;;;;;;;;;12.39;52.59;96631.53;5094521;28;19924;-67
2021/05/31 05:17:47;;;;;;;;;;;;;;;13.19;50.64;96633.13;5094660;28;19942;-66
2021/05/31 05:20:13;;;;;;;;;;;;;;;13.01;50.83;96632.31;5094738;28;20462;-66
2021/05/31 05:22:39;;;;;;;;;;;;;;;13.51;49.81;96628.88;5076419;28;20287;-66
2021/05/31 05:25:05;;;;;;;;;;;;;;;13.49;48.88;96627.50;5094304;28;19935;-66
2021/05/31 05:27:34;;;;;;;;;;;;;;;13.41;48.68;96625.28;5094238;28;20448;-66
2021/05/31 05:30:02;;;;;;;;;;;;;;;13.37;48.70;96620.47;5094692;28;19954;-66
2021/05/31 05:32:27;;;;;;;;;;;;;;;14.06;47.04;96619.22;5094508;28;19973;-66
2021/05/31 05:34:58;;;;;;;;;;;;;;;14.28;48.09;96621.84;5094184;28;19920;-66
2021/05/31 05:37:30;;;;;;;;;;;;;;;14.06;47.38;96632.47;5094341;28;20313;-66
2021/05/31 05:47:46;;;;;;;;;;;;;;;14.04;47.57;96631.88;5094394;28;19920;-66
2021/05/31 05:50:13;;;;;;;;;;;;;;;14.14;46.83;96629.38;5094362;28;20023;-66
2021/05/31 05:52:38;;;;;;;;;;;;;;;14.68;47.13;96630.22;5094067;28;19920;-67
2021/05/31 05:55:05;;;;;;;;;;;;;;;14.51;46.48;96634.00;5094105;28;19920;-66
2021/05/31 05:57:31;;;;;;;;;;;;;;;14.80;46.85;96632.72;5105663;28;20398;-66
2021/05/31 06:00:01;;;;;;;;;;;;;;;14.90;45.39;96637.28;5079805;28;19920;-67
2021/05/31 06:02:29;;;;;;;;;;;;;;;14.59;46.00;96636.22;5094638;28;19924;-66
2021/05/31 06:04:54;;;;;;;;;;;;;;;15.09;45.84;96635.06;5093748;28;19939;-66
2021/05/31 06:07:22;;;;;;;;;;;;;;;15.64;44.10;96632.00;5075568;28;19920;-66
2021/05/31 06:09:47;;;;;;;;;;;;;;;15.09;44.23;96640.34;5075897;28;19965;-67
2021/05/31 06:12:13;;;;;;;;;;;;;;;15.09;45.67;96645.66;5093910;28;19920;-67
2021/05/31 06:14:38;;;;;;;;;;;;;;;15.46;44.14;96640.34;5093792;28;19931;-67
2021/05/31 06:17:05;;;;;;;;;;;;;;;15.06;45.17;96648.81;5093865;28;19920;-67
2021/05/31 06:19:30;;;;;;;;;;;;;;;14.68;45.52;96655.88;5093626;28;19927;-67
2021/05/31 06:21:58;;;;;;;;;;;;;;;14.11;46.33;96656.31;5093535;28;19920;-66
2021/05/31 06:24:24;;;;;;;;;;;;;;;14.31;47.27;96650.44;5075017;28;20011;-67
2021/05/31 06:26:49;;;;;;;;;;;;;;;14.29;46.14;96642.75;5093655;28;19951;-66
2021/05/31 06:29:14;;;;;;;;;;;;;;;13.99;47.63;96645.06;5093385;28;19920;-66
2021/05/31 06:31:40;;;;;;;;;;;;;;;14.20;47.13;96649.53;5093368;28;19920;-67
2021/05/31 06:34:09;;;;;;;;;;;;;;;14.00;47.26;96652.75;5092876;28;20367;-66
2021/05/31 06:36:39;;;;;;;;;;;;;;;14.90;45.23;96653.97;5094184;28;20295;-67
2021/05/31 06:39:07;;;;;;;;;;;;;;;14.78;46.07;96653.34;5075422;28;19920;-67
2021/05/31 06:41:35;;;;;;;;;;;;;;;15.19;46.46;96656.34;5093277;28;19924;-67
2021/05/31 06:44:00;;;;;;;;;;;;;;;15.43;44.81;96657.56;5074716;28;19954;-67
2021/05/31 06:46:26;;;;;;;;;;;;;;;14.74;45.10;96648.78;5093074;28;19920;-67
2021/05/31 06:48:51;;;;;;;;;;;;;;;14.81;46.11;96647.56;5092992;28;20364;-66
2021/05/31 06:51:18;;;;;;;;;;;;;;;15.24;45.15;96648.44;5093223;28;19965;-66
2021/05/31 06:53:44;;;;;;;;;;;;;;;15.11;45.35;96652.28;5092611;28;19923;-67
2021/05/31 06:56:11;;;;;;;;;;;;;;;15.34;45.79;96648.50;5093541;28;19945;-66
2021/05/31 06:58:36;;;;;;;;;;;;;;;15.32;45.20;96649.78;5093361;28;20030;-67
2021/05/31 07:01:02;;;;;;;;;;;;;;;15.43;44.65;96644.28;5093538;28;19951;-67
2021/05/31 07:03:30;;;;;;;;;;;;;;;15.48;43.92;96646.97;5093233;28;19920;-67
2021/05/31 07:05:55;;;;;;;;;;;;;;;14.92;45.42;96657.19;5093519;28;19926;-66
2021/05/31 07:08:24;;;;;;;;;;;;;;;14.93;45.82;96647.38;5093199;28;20011;-67
2021/05/31 07:10:54;;;;;;;;;;;;;;;15.12;44.91;96648.59;5093662;28;19920;-66
2021/05/31 07:13:20;;;;;;;;;;;;;;;15.14;44.10;96643.03;5075136;28;19927;-67
2021/05/31 07:15:46;;;;;;;;;;;;;;;15.42;43.73;96637.41;5093178;28;20014;-68
2021/05/31 07:18:12;;;;;;;;;;;;;;;16.18;42.53;96642.31;5093192;28;19927;-66
2021/05/31 07:20:37;;;;;;;;;;;;;;;16.45;41.25;96631.50;5092928;28;20010;-66
2021/05/31 07:23:03;;;;;;;;;;;;;;;16.85;40.67;96634.53;5092773;28;19956;-67
2021/05/31 07:25:29;;;;;;;;;;;;;;;16.71;41.79;96636.88;5075210;28;19920;-68
2021/05/31 07:27:57;;;;;;;;;;;;;;;16.85;41.14;96640.63;5075914;28;19920;-67
2021/05/31 07:30:22;;;;;;;;;;;;;;;17.78;39.75;96636.81;5094428;28;20011;-67
2021/05/31 07:32:48;;;;;;;;;;;;;;;17.29;39.47;96638.22;5076633;28;19959;-67
2021/05/31 07:35:13;;;;;;;;;;;;;;;16.61;41.38;96631.53;5092860;28;19920;-67
2021/05/31 07:37:39;;;;;;;;;;;;;;;18.37;38.46;96633.38;5092653;28;19923;-67
2021/05/31 07:40:06;;;;;;;;;;;;;;;18.49;38.37;96633.03;5092705;28;19920;-67
2021/05/31 07:42:33;;;;;;;;;;;;;;;18.60;36.86;96634.56;5077698;28;19920;-66
2021/05/31 07:45:00;;;;;;;;;;;;;;;17.76;39.55;96639.78;5076293;28;19969;-68
2021/05/31 07:47:26;;;;;;;;;;;;;;;18.91;35.89;96647.72;5098523;28;19935;-66
2021/05/31 07:49:52;;;;;;;;;;;;;;;18.80;36.60;96641.69;5109104;28;19920;-67
2021/05/31 07:52:20;;;;;;;;;;;;;;;18.44;37.64;96643.72;5097286;28;19941;-68
2021/05/31 07:54:48;;;;;;;;;;;;;;;19.37;36.12;96640.13;5093494;28;20015;-68
2021/05/31 07:57:16;;;;;;;;;;;;;;;18.62;36.05;96640.44;5093254;28;19987;-68
2021/05/31 07:59:45;;;;;;;;;;;;;;;19.33;36.03;96639.91;5093019;28;19920;-67
2021/05/31 08:02:11;;;;;;;;;;;;;;;19.64;35.05;96644.97;5093334;28;19930;-67
2021/05/31 08:04:36;;;;;;;;;;;;;;;18.99;35.12;96642.59;5092976;28;19963;-67
2021/05/31 08:07:02;;;;;;;;;;;;;;;18.53;36.18;96637.56;5092824;28;20010;-67
2021/05/31 08:09:27;;;;;;;;;;;;;;;18.83;35.72;96638.44;5091747;28;20011;-68
2021/05/31 08:11:55;;;;;;;;;;;;;;;19.07;35.56;96626.00;5074572;28;19924;-68
2021/05/31 08:14:20;;;;;;;;;;;;;;;18.78;35.87;96630.47;5092060;28;19924;-68
2021/05/31 08:16:48;;;;;;;;;;;;;;;18.97;35.28;96618.09;5091970;28;19969;-67
2021/05/31 08:19:14;;;;;;;;;;;;;;;18.41;34.86;96623.00;5092236;28;20011;-67
2021/05/31 08:21:40;;;;;;;;;;;;;;;18.83;34.15;96627.78;5093781;28;20447;-68
2021/05/31 08:24:08;;;;;;;;;;;;;;;19.15;33.88;96627.25;5096382;28;19970;-68
2021/05/31 08:26:35;;;;;;;;;;;;;;;19.03;34.66;96627.63;5096488;28;19924;-68
2021/05/31 08:29:01;;;;;;;;;;;;;;;19.67;33.05;96626.53;5096617;28;20003;-68
2021/05/31 08:31:26;;;;;;;;;;;;;;;18.75;33.97;96628.38;5097623;28;19959;-69
2021/05/31 08:33:53;;;;;;;;;;;;;;;18.97;33.73;96626.09;5096817;28;19951;-67
2021/05/31 08:36:20;;;;;;;;;;;;;;;19.07;34.92;96626.00;5078770;28;19927;-67
2021/05/31 08:38:46;;;;;;;;;;;;;;;18.38;35.80;96616.31;5097016;28;19920;-68
2021/05/31 08:41:11;;;;;;;;;;;;;;;19.50;33.75;96620.81;5096324;28;19927;-68
2021/05/31 08:43:37;;;;;;;;;;;;;;;20.32;32.88;96611.88;5095999;28;20010;-67
2021/05/31 08:46:02;;;;;;;;;;;;;;;19.15;34.14;96613.94;5096272;28;19920;-68
2021/05/31 08:48:28;;;;;;;;;;;;;;;19.28;34.62;96615.97;5096481;28;20403;-67
2021/05/31 08:50:55;;;;;;;;;;;;;;;19.78;33.00;96613.88;5096343;28;19931;-67
2021/05/31 08:53:21;;;;;;;;;;;;;;;20.22;33.00;96617.34;5096106;28;19920;-68
2021/05/31 08:55:47;;;;;;;;;;;;;;;20.85;31.95;96623.16;5077806;28;19931;-68
2021/05/31 08:58:13;;;;;;;;;;;;;;;20.66;31.75;96617.84;5077842;28;19931;-68
2021/05/31 09:00:41;;;;;;;;;;;;;;;19.80;32.77;96619.72;5097054;28;19920;-68
2021/05/31 09:03:08;;;;;;;;;;;;;;;19.63;33.65;96617.50;5095883;28;19962;-69
2021/05/31 09:05:37;;;;;;;;;;;;;;;19.86;33.50;96620.47;5096180;28;19924;-68
2021/05/31 09:08:07;;;;;;;;;;;;;;;20.13;33.39;96615.31;5095818;28;19920;-69
2021/05/31 09:10:34;;;;;;;;;;;;;;;20.17;32.20;96621.66;5096117;28;19973;-67
2021/05/31 09:13:00;;;;;;;;;;;;;;;20.12;29.66;96619.06;5095857;28;19926;-68
2021/05/31 09:15:26;;;;;;;;;;;;;;;20.65;30.35;96612.75;5077397;28;19920;-67
2021/05/31 09:17:51;;;;;;;;;;;;;;;21.49;30.68;96623.47;5077255;28;19920;-68
2021/05/31 09:20:17;;;;;;;;;;;;;;;20.58;31.64;96599.78;5095689;28;19920;-67
2021/05/31 09:22:43;;;;;;;;;;;;;;;21.85;29.79;96610.22;5095898;28;19919;-67
2021/05/31 09:25:10;;;;;;;;;;;;;;;21.91;29.09;96613.59;5096052;28;20030;-68
2021/05/31 09:27:36;;;;;;;;;;;;;;;21.11;30.27;96599.47;5095815;28;19996;-67
2021/05/31 09:30:03;;;;;;;;;;;;;;;20.60;31.82;96605.59;5095833;28;19920;-68
2021/05/31 09:32:31;;;;;;;;;;;;;;;20.44;31.84;96604.22;5077061;28;20383;-68
2021/05/31 09:34:57;;;;;;;;;;;;;;;19.40;32.05;96596.91;5095265;28;19920;-68
2021/05/31 09:37:26;;;;;;;;;;;;;;;19.34;32.44;96603.38;5095320;28;19920;-68
2021/05/31 09:39:58;;;;;;;;;;;;;;;19.41;33.07;96609.16;5083003;28;20011;-68
2021/05/31 09:42:25;;;;;;;;;;;;;;;19.02;34.06;96604.72;5099056;28;19924;-68
2021/05/31 09:44:57;;;;;;;;;;;;;;;18.59;34.31;96599.16;5095675;28;20379;-68
2021/05/31 09:47:26;;;;;;;;;;;;;;;18.41;34.50;96607.81;5078257;28;20299;-67
2021/05/31 09:49:51;;;;;;;;;;;;;;;18.02;35.36;96611.16;5078354;28;20440;-67
2021/05/31 09:52:17;;;;;;;;;;;;;;;17.86;36.50;96617.63;5098397;28;19919;-68
2021/05/31 09:54:44;;;;;;;;;;;;;;;17.43;36.96;96606.53;5100233;28;19939;-68
2021/05/31 09:57:19;;;;;;;;;;;;;;;17.50;37.23;96604.41;5100436;28;20061;-67
2021/05/31 09:59:47;;;;;;;;;;;;;;;17.89;36.50;96603.78;5081450;28;19927;-68
2021/05/31 10:02:17;;;;;;;;;;;;;;;17.68;36.42;96604.91;5100058;28;19919;-67
2021/05/31 10:09:40;;;;;;;;;;;;;;;17.21;37.51;96590.91;5095185;28;19926;-68
2021/05/31 10:12:06;;;;;;;;;;;;;;;17.48;36.97;96603.88;5094330;28;20361;-68
2021/05/31 10:14:31;;;;;;;;;;;;;;;17.71;37.03;96604.38;5114804;22;19928;-65
2021/05/31 10:16:59;;;;;;;;;;;;;;;17.62;37.38;96598.00;5083975;28;20343;-65
2021/05/31 10:19:24;;;;;;;;;;;;;;;17.50;37.03;96593.00;5099442;28;19930;-64
2021/05/31 10:21:49;;;;;;;;;;;;;;;17.52;36.91;96598.81;5099937;28;20022;-65
2021/05/31 10:24:15;;;;;;;;;;;;;;;17.77;36.50;96600.66;5100583;28;19920;-65
2021/05/31 10:26:41;;;;;;;;;;;;;;;17.70;37.29;96589.44;5100291;28;19931;-64
2021/05/31 10:29:08;;;;;;;;;;;;;;;17.95;36.49;96594.72;5100052;28;19927;-66
2021/05/31 10:31:40;;;;;;;;;;;;;;;17.52;37.37;96596.16;5099048;28;19931;-63
2021/05/31 10:34:16;;;;;;;;;;;;;;;17.78;37.43;96596.91;5099906;28;20435;-65
2021/05/31 10:36:42;;;;;;;;;;;;;;;17.90;37.18;96594.72;5099495;28;19927;-65
2021/05/31 10:39:08;;;;;;;;;;;;;;;17.81;36.60;96593.69;5098943;28;19923;-66
2021/05/31 10:41:38;;;;;;;;;;;;;;;17.88;37.02;96588.09;5099659;28;19920;-65
2021/05/31 10:44:06;;;;;;;;;;;;;;;17.87;36.96;96583.84;5098811;28;20302;-64
2021/05/31 10:46:36;;;;;;;;;;;;;;;17.59;35.73;96586.81;5099931;28;19920;-65
2021/05/31 10:49:04;;;;;;;;;;;;;;;17.63;37.42;96583.63;5098667;28;20018;-65
2021/05/31 10:51:36;;;;;;;;;;;;;;;17.86;36.09;96588.34;5099653;28;20058;-65
2021/05/31 10:54:06;;;;;;;;;;;;;;;17.82;35.69;96587.31;5098234;28;19951;-65
2021/05/31 10:56:31;;;;;;;;;;;;;;;17.19;37.24;96587.72;5095058;28;19927;-64
2021/05/31 10:58:58;;;;;;;;;;;;;;;17.63;37.03;96583.63;5093965;28;19920;-65
2021/05/31 11:01:38;;;;;;;;;;;;;;;17.67;36.86;96588.16;5075736;28;19945;-65
2021/05/31 11:04:04;;;;;;;;;;;;;;;17.20;37.24;96585.84;5093344;28;20437;-65
2021/05/31 11:06:33;;;;;;;;;;;;;;;17.32;37.62;96584.50;5093470;28;19923;-65
2021/05/31 11:09:04;;;;;;;;;;;;;;;17.50;37.91;96588.47;5093112;28;19927;-65
2021/05/31 11:11:30;;;;;;;;;;;;;;;17.93;36.50;96588.09;5093994;28;19920;-65
2021/05/31 11:13:56;;;;;;;;;;;;;;;18.18;35.51;96592.47;5098668;28;19928;-64
2021/05/31 11:16:21;;;;;;;;;;;;;;;18.17;35.29;96585.56;5094327;28;20022;-65
2021/05/31 11:18:47;;;;;;;;;;;;;;;18.10;35.48;96576.00;5076649;28;19927;-65
2021/05/31 11:21:25;;;;;;;;;;;;;;;18.33;35.02;96581.72;5093480;28;19920;-65
2021/05/31 11:23:56;;;;;;;;;;;;;;;18.42;34.80;96588.06;5074617;28;19974;-66
2021/05/31 11:26:21;;;;;;;;;;;;;;;18.53;34.29;96583.47;5093145;28;20066;-66
2021/05/31 11:28:47;;;;;;;;;;;;;;;18.48;34.10;96591.50;5092916;28;19920;-65
2021/05/31 11:31:12;;;;;;;;;;;;;;;18.55;34.20;96584.78;5092904;28;19920;-65
2021/05/31 11:33:38;;;;;;;;;;;;;;;18.51;35.36;96575.78;5092212;28;19965;-65
2021/05/31 11:36:04;;;;;;;;;;;;;;;18.86;34.21;96566.72;5092962;28;19945;-64
2021/05/31 11:38:30;;;;;;;;;;;;;;;18.26;34.56;96578.59;5092582;28;19920;-64
2021/05/31 11:40:57;;;;;;;;;;;;;;;17.46;35.78;96576.75;5092715;28;19924;-64
2021/05/31 11:43:25;;;;;;;;;;;;;;;17.72;35.86;96576.69;5092722;28;19924;-66
2021/05/31 11:45:50;;;;;;;;;;;;;;;18.07;35.61;96575.75;5075037;28;19926;-64
2021/05/31 11:48:17;;;;;;;;;;;;;;;17.84;35.71;96582.53;5092796;28;20010;-65
2021/05/31 11:50:43;;;;;;;;;;;;;;;18.06;36.06;96571.50;5074617;28;19920;-65
2021/05/31 11:53:09;;;;;;;;;;;;;;;18.31;35.27;96584.69;5092338;28;20003;-65
2021/05/31 11:55:35;;;;;;;;;;;;;;;18.21;35.33;96583.94;5092605;28;19951;-65
2021/05/31 11:58:03;;;;;;;;;;;;;;;18.03;35.44;96588.84;5096126;28;19920;-65
2021/05/31 12:00:29;;;;;;;;;;;;;;;18.19;34.75;96583.41;5097003;28;19970;-64
2021/05/31 12:02:55;;;;;;;;;;;;;;;18.07;35.35;96581.88;5078397;28;19951;-65
2021/05/31 12:05:28;;;;;;;;;;;;;;;18.04;35.17;96576.31;5096668;28;19923;-65
2021/05/31 12:07:56;;;;;;;;;;;;;;;18.33;34.75;96568.41;5096790;28;19994;-65
2021/05/31 12:10:21;;;;;;;;;;;;;;;18.42;34.35;96572.09;5078458;28;20294;-65
2021/05/31 12:12:48;;;;;;;;;;;;;;;18.51;35.06;96565.13;5096947;28;19924;-65
2021/05/31 12:15:17;;;;;;;;;;;;;;;18.38;34.59;96563.06;5097001;28;19920;-65
2021/05/31 12:17:43;;;;;;;;;;;;;;;18.48;34.76;96567.53;5096371;28;19920;-65
2021/05/31 12:20:11;;;;;;;;;;;;;;;18.58;34.61;96556.81;5097002;28;19920;-66
2021/05/31 12:22:38;;;;;;;;;;;;;;;18.75;34.08;96559.91;5097179;28;19943;-65
2021/05/31 12:25:06;;;;;;;;;;;;;;;18.73;33.64;96566.59;5096361;28;19927;-65
2021/05/31 12:27:35;;;;;;;;;;;;;;;18.55;35.29;96560.00;5097126;28;20285;-64
2021/05/31 12:30:02;;;;;;;;;;;;;;;18.98;33.19;96558.34;5096829;28;19931;-65
2021/05/31 12:32:29;;;;;;;;;;;;;;;18.57;33.46;96558.69;5097674;28;20014;-65
2021/05/31 12:34:55;;;;;;;;;;;;;;;19.08;33.92;96552.94;5096749;28;20451;-66
2021/05/31 12:37:22;;;;;;;;;;;;;;;18.95;33.02;96553.59;5096830;28;19920;-65
2021/05/31 12:39:49;;;;;;;;;;;;;;;18.94;33.44;96549.34;5096528;28;19920;-65
2021/05/31 12:42:22;;;;;;;;;;;;;;;18.79;34.08;96544.94;5096974;28;19958;-65
2021/05/31 12:44:47;;;;;;;;;;;;;;;18.69;33.94;96552.22;5095988;28;20031;-65
2021/05/31 12:47:13;;;;;;;;;;;;;;;19.10;33.42;96542.78;5095978;28;19958;-65
2021/05/31 12:49:44;;;;;;;;;;;;;;;19.18;33.24;96540.59;5096525;28;20342;-66
2021/05/31 12:52:09;;;;;;;;;;;;;;;19.48;32.94;96537.59;5096825;28;19920;-65
2021/05/31 12:54:35;;;;;;;;;;;;;;;19.12;33.54;96537.97;5095273;28;20015;-65
2021/05/31 12:57:10;;;;;;;;;;;;;;;18.88;33.52;96531.78;5096083;28;19927;-65
2021/05/31 12:59:39;;;;;;;;;;;;;;;18.88;34.24;96521.91;5096146;28;20407;-66
2021/05/31 13:02:12;;;;;;;;;;;;;;;19.03;34.53;96534.31;5096168;28;19972;-65
2021/05/31 13:04:39;;;;;;;;;;;;;;;19.53;32.74;96536.72;5078336;28;19989;-65
2021/05/31 13:07:15;;;;;;;;;;;;;;;19.47;32.49;96522.66;5096652;28;19949;-63